Time;durP1;ratioP1;P1;durP2;ratioP2;P2;SDS_P1;SDS_P2;PMS_P1;PMS_P2;Temp;Humidity;BMP_temperature;BMP_pressure;BME280_temperature;BME280_humidity;BME280_pressure;Samples;Min_cycle;Max_cycle;Signal;HPM_P1;HPM_P2
2022/03/17 00:00:10;;;;;;;22.17;13.45;;;9.50;99.90;;;;;;5008308;28;20057;-67
2022/03/17 00:02:36;;;;;;;30.50;14.82;;;9.40;99.90;;;;;;5007480;28;20060;-67
2022/03/17 00:05:04;;;;;;;23.48;12.43;;;9.40;99.90;;;;;;5023162;28;20559;-68
2022/03/17 00:07:30;;;;;;;27.02;17.73;;;9.40;99.90;;;;;;5008757;28;20065;-67
2022/03/17 00:09:57;;;;;;;27.58;15.68;;;9.30;99.90;;;;;;4987396;28;20054;-68
2022/03/17 00:12:23;;;;;;;21.02;12.57;;;9.30;99.90;;;;;;5004298;28;20046;-67
2022/03/17 00:14:50;;;;;;;22.60;13.10;;;9.30;99.90;;;;;;5007436;28;20108;-67
2022/03/17 00:17:17;;;;;;;20.95;15.05;;;9.40;99.90;;;;;;4974886;28;20089;-67
2022/03/17 00:19:43;;;;;;;19.85;14.48;;;9.30;99.90;;;;;;5013113;28;20045;-67
2022/03/17 00:22:09;;;;;;;29.38;15.32;;;9.30;99.90;;;;;;4998228;28;20113;-68
2022/03/17 00:24:38;;;;;;;24.75;14.82;;;9.30;99.90;;;;;;4987246;28;20104;-67
2022/03/17 00:27:11;;;;;;;26.38;16.52;;;9.30;99.90;;;;;;4961869;28;20424;-67
2022/03/17 00:29:37;;;;;;;24.65;16.50;;;9.30;99.90;;;;;;4974137;28;20057;-68
2022/03/17 00:32:05;;;;;;;28.20;16.70;;;9.30;99.90;;;;;;4998072;28;20507;-67
2022/03/17 00:34:31;;;;;;;24.33;16.17;;;9.20;99.90;;;;;;5008100;28;20046;-68
2022/03/17 00:36:57;;;;;;;25.67;16.50;;;9.20;99.90;;;;;;4990345;28;20052;-67
2022/03/17 00:39:23;;;;;;;17.90;10.73;;;9.20;99.90;;;;;;4970929;28;20516;-67
2022/03/17 00:41:49;;;;;;;21.67;12.55;;;9.20;99.90;;;;;;5008299;28;20042;-67
2022/03/17 00:44:15;;;;;;;26.52;18.45;;;9.10;99.90;;;;;;4987423;28;20086;-67
2022/03/17 00:46:41;;;;;;;24.33;14.90;;;9.10;99.90;;;;;;4984841;28;20061;-68
2022/03/17 00:49:07;;;;;;;28.90;17.70;;;9.10;99.90;;;;;;4963663;28;20573;-67
2022/03/17 00:51:34;;;;;;;24.38;15.68;;;9.10;99.90;;;;;;4996647;28;20444;-67
2022/03/17 00:54:00;;;;;;;28.75;18.25;;;9.00;99.90;;;;;;4989211;28;20136;-67
2022/03/17 00:56:26;;;;;;;33.15;18.33;;;9.00;99.90;;;;;;5008095;28;20135;-67
2022/03/17 00:58:52;;;;;;;31.15;17.90;;;9.00;99.90;;;;;;5007135;28;20057;-67
2022/03/17 01:01:19;;;;;;;26.90;15.93;;;9.00;99.90;;;;;;4989312;28;20407;-67
2022/03/17 01:03:46;;;;;;;23.83;14.52;;;9.00;99.90;;;;;;4986191;28;20468;-67
2022/03/17 01:06:13;;;;;;;34.17;15.32;;;9.00;99.90;;;;;;5002603;28;20085;-67
2022/03/17 01:08:39;;;;;;;26.73;15.82;;;9.00;99.90;;;;;;5007864;28;20133;-67
2022/03/17 01:11:05;;;;;;;29.23;15.00;;;9.00;99.90;;;;;;5007024;28;20156;-67
2022/03/17 01:13:32;;;;;;;31.98;17.20;;;9.00;99.90;;;;;;5009375;28;20046;-67
2022/03/17 01:15:58;;;;;;;21.58;13.10;;;9.00;99.90;;;;;;4986850;28;20086;-67
2022/03/17 01:18:24;;;;;;;24.55;14.02;;;9.00;99.90;;;;;;4989138;28;20077;-68
2022/03/17 01:20:50;;;;;;;26.08;14.50;;;9.00;99.90;;;;;;4985781;28;20116;-67
2022/03/17 01:23:17;;;;;;;17.17;10.27;;;9.00;99.90;;;;;;4989091;28;20403;-67
2022/03/17 01:25:43;;;;;;;17.50;10.32;;;9.00;99.90;;;;;;4988430;28;20088;-67
2022/03/17 01:28:10;;;;;;;21.15;14.27;;;9.00;99.90;;;;;;4988467;28;20070;-67
2022/03/17 01:30:36;;;;;;;25.13;15.45;;;9.10;99.90;;;;;;4971416;28;20405;-67
2022/03/17 01:33:03;;;;;;;18.73;10.50;;;9.00;99.90;;;;;;4985543;28;20054;-68
2022/03/17 01:35:29;;;;;;;25.70;14.57;;;9.00;99.90;;;;;;4987192;28;20061;-68
2022/03/17 01:37:55;;;;;;;26.52;16.35;;;9.00;99.90;;;;;;4986053;28;20404;-68
2022/03/17 01:40:21;;;;;;;21.55;11.35;;;9.00;99.90;;;;;;4985818;28;20326;-68
2022/03/17 01:42:47;;;;;;;27.92;18.33;;;9.10;99.90;;;;;;4988359;28;20038;-67
2022/03/17 01:45:12;;;;;;;23.70;14.15;;;9.10;99.90;;;;;;4971555;28;20042;-67
2022/03/17 01:47:38;;;;;;;28.50;17.35;;;9.10;99.90;;;;;;4987254;28;20054;-67
2022/03/17 01:50:10;;;;;;;32.40;16.70;;;9.10;99.90;;;;;;4985310;28;20376;-68
2022/03/17 01:52:38;;;;;;;26.73;17.88;;;9.10;99.90;;;;;;4986187;28;20081;-67
2022/03/17 01:55:06;;;;;;;30.00;15.68;;;9.10;99.90;;;;;;4996580;28;20511;-67
2022/03/17 01:57:32;;;;;;;20.00;12.00;;;9.10;99.90;;;;;;5006566;28;20037;-68
2022/03/17 01:59:59;;;;;;;22.42;11.90;;;9.00;99.90;;;;;;4988717;28;20034;-67
2022/03/17 02:02:25;;;;;;;26.63;15.13;;;9.00;99.90;;;;;;4988405;28;20085;-67
2022/03/17 02:04:51;;;;;;;25.23;14.65;;;9.10;99.90;;;;;;4988526;28;20046;-67
2022/03/17 02:07:17;;;;;;;25.70;14.95;;;9.10;99.90;;;;;;4990931;28;20049;-67
2022/03/17 02:09:44;;;;;;;27.55;10.25;;;9.10;99.90;;;;;;4988632;28;20038;-67
2022/03/17 02:15:00;;;;;;;25.08;15.63;;;9.10;99.90;;;;;;4994891;28;20133;-67
2022/03/17 02:17:28;;;;;;;22.25;13.60;;;9.10;99.90;;;;;;5007239;28;20038;-67
2022/03/17 02:19:54;;;;;;;23.92;14.40;;;9.10;99.90;;;;;;5021472;28;20060;-67
2022/03/17 02:22:22;;;;;;;28.42;14.07;;;9.10;99.90;;;;;;4988376;28;20046;-67
2022/03/17 02:27:46;;;;;;;31.67;18.98;;;9.10;99.90;;;;;;4992114;28;20103;-67
2022/03/17 02:30:18;;;;;;;26.23;14.75;;;9.10;99.90;;;;;;4985105;28;20062;-68
2022/03/17 02:32:45;;;;;;;29.67;16.67;;;9.10;99.90;;;;;;5001807;28;20395;-67
2022/03/17 02:35:23;;;;;;;29.80;15.73;;;9.10;99.90;;;;;;4988153;28;20046;-67
2022/03/17 02:37:50;;;;;;;34.17;16.15;;;9.10;99.90;;;;;;5007599;28;20130;-67
2022/03/17 02:40:15;;;;;;;31.45;17.52;;;9.10;99.90;;;;;;4971692;28;20046;-67
2022/03/17 02:42:41;;;;;;;21.58;13.10;;;9.10;99.90;;;;;;4985176;28;20140;-67
2022/03/17 02:45:10;;;;;;;25.55;15.85;;;9.10;99.90;;;;;;4984096;28;20046;-67
2022/03/17 02:47:37;;;;;;;28.17;16.35;;;9.10;99.90;;;;;;4997894;28;20511;-68
2022/03/17 02:50:04;;;;;;;30.92;18.98;;;9.10;99.90;;;;;;4998334;28;20369;-67
2022/03/17 02:52:30;;;;;;;30.95;17.77;;;9.10;99.90;;;;;;4979154;28;20112;-67
2022/03/17 02:54:56;;;;;;;30.52;18.08;;;9.10;99.90;;;;;;4987945;28;20062;-67
2022/03/17 02:57:22;;;;;;;29.58;17.60;;;9.10;99.90;;;;;;4984934;28;20072;-67
2022/03/17 02:59:54;;;;;;;21.08;10.55;;;9.10;99.90;;;;;;4983555;28;20407;-67
2022/03/17 03:02:21;;;;;;;23.60;14.75;;;9.10;99.90;;;;;;4985313;28;20085;-67
2022/03/17 03:04:46;;;;;;;25.80;15.98;;;9.10;99.90;;;;;;4999219;28;20403;-67
2022/03/17 03:07:12;;;;;;;32.00;14.60;;;9.10;99.90;;;;;;5009610;28;20049;-67
2022/03/17 03:09:38;;;;;;;28.85;16.75;;;9.10;99.90;;;;;;4993611;28;20463;-67
2022/03/17 03:12:05;;;;;;;19.35;9.57;;;9.10;99.90;;;;;;4978161;28;20144;-68
2022/03/17 03:14:31;;;;;;;22.92;12.80;;;9.20;99.90;;;;;;5005009;28;20410;-67
2022/03/17 03:16:57;;;;;;;30.73;17.77;;;9.20;99.90;;;;;;4984913;28;20042;-67
2022/03/17 03:19:23;;;;;;;26.77;16.00;;;9.20;99.90;;;;;;4969033;28;20061;-67
2022/03/17 03:21:49;;;;;;;12.63;7.38;;;9.20;99.90;;;;;;4978023;28;20050;-67
2022/03/17 03:24:15;;;;;;;22.38;14.13;;;9.20;99.90;;;;;;5004940;28;20399;-67
2022/03/17 03:26:42;;;;;;;31.50;16.90;;;9.20;99.90;;;;;;4984626;28;20043;-67
2022/03/17 03:29:30;;;;;;;22.08;12.15;;;9.30;99.90;;;;;;4993549;28;20042;-67
2022/03/17 03:32:02;;;;;;;29.67;15.50;;;9.30;99.90;;;;;;4977481;28;20050;-67
2022/03/17 03:34:29;;;;;;;18.98;8.63;;;9.40;99.90;;;;;;4985799;28;20547;-68
2022/03/17 03:39:39;;;;;;;17.73;10.43;;;9.40;99.90;;;;;;4988641;28;20475;-67
2022/03/17 03:42:05;;;;;;;21.75;12.02;;;9.40;99.90;;;;;;5000489;28;20050;-67
2022/03/17 03:44:31;;;;;;;25.80;14.30;;;9.40;99.90;;;;;;5001902;28;20506;-67
2022/03/17 03:46:57;;;;;;;24.40;16.00;;;9.50;99.90;;;;;;5009100;28;20046;-67
2022/03/17 03:49:23;;;;;;;24.73;15.57;;;9.50;99.90;;;;;;4991983;28;20037;-67
2022/03/17 03:51:49;;;;;;;18.45;11.75;;;9.50;99.90;;;;;;4987715;28;20030;-67
2022/03/17 03:54:16;;;;;;;18.63;10.15;;;9.50;99.90;;;;;;4997599;28;20496;-67
2022/03/17 03:56:51;;;;;;;16.08;9.60;;;9.50;99.90;;;;;;4991067;28;20591;-67
2022/03/17 04:01:45;;;;;;;26.00;16.65;;;9.60;99.90;;;;;;4992875;28;20089;-67
2022/03/17 04:04:16;;;;;;;25.23;13.48;;;9.60;99.90;;;;;;4987765;28;20136;-68
2022/03/17 04:06:45;;;;;;;27.10;17.08;;;9.60;99.90;;;;;;5003911;28;20050;-67
2022/03/17 04:09:12;;;;;;;18.85;10.90;;;9.60;99.90;;;;;;4990522;28;20174;-67
2022/03/17 04:11:40;;;;;;;27.33;16.70;;;9.60;99.90;;;;;;4991711;28;20057;-67
2022/03/17 04:14:06;;;;;;;29.23;17.38;;;9.60;99.90;;;;;;4989322;28;20500;-67
2022/03/17 04:16:33;;;;;;;18.02;10.73;;;9.60;99.90;;;;;;5008330;28;20053;-68
2022/03/17 04:18:59;;;;;;;19.08;11.77;;;9.60;99.90;;;;;;5000494;28;20045;-67
2022/03/17 04:21:25;;;;;;;27.42;16.20;;;9.60;99.90;;;;;;4976507;28;20103;-67
2022/03/17 04:23:50;;;;;;;29.67;18.45;;;9.50;99.90;;;;;;5003791;28;20058;-67
2022/03/17 04:26:16;;;;;;;26.83;16.85;;;9.50;99.90;;;;;;4985059;28;20057;-67
2022/03/17 04:28:42;;;;;;;29.00;17.52;;;9.50;99.90;;;;;;4985124;28;20400;-67
2022/03/17 04:31:09;;;;;;;29.92;17.27;;;9.50;99.90;;;;;;5011346;28;20518;-67
2022/03/17 04:33:35;;;;;;;23.27;14.30;;;9.50;99.90;;;;;;4990473;28;20053;-67
2022/03/17 04:36:05;;;;;;;24.85;16.40;;;9.50;99.90;;;;;;4990443;28;20046;-67
2022/03/17 04:38:31;;;;;;;;;;;9.50;99.90;;;;;;5008286;28;20046;-67
2022/03/17 04:40:57;;;;;;;29.30;14.30;;;9.50;99.90;;;;;;4997499;28;19921;-67
2022/03/17 04:43:23;;;;;;;26.40;16.10;;;9.50;99.90;;;;;;5008103;28;20037;-67
2022/03/17 04:45:50;;;;;;;32.22;17.13;;;9.50;99.90;;;;;;5007940;28;20049;-67
2022/03/17 04:48:15;;;;;;;28.42;16.45;;;9.50;99.90;;;;;;5007171;28;20042;-67
2022/03/17 04:50:42;;;;;;;27.35;17.95;;;9.50;99.90;;;;;;4990890;28;20124;-66
2022/03/17 04:56:00;;;;;;;26.88;17.25;;;9.50;99.90;;;;;;5006835;28;20483;-67
2022/03/17 04:58:31;;;;;;;27.35;18.10;;;9.40;99.90;;;;;;5007482;28;20049;-67
2022/03/17 05:00:57;;;;;;;30.50;18.48;;;9.30;99.90;;;;;;4999670;28;20050;-67
2022/03/17 05:03:24;;;;;;;35.55;20.00;;;9.30;99.90;;;;;;4987858;28;20069;-67
2022/03/17 05:05:50;;;;;;;32.67;17.95;;;9.30;99.90;;;;;;5007485;28;20042;-66
2022/03/17 05:08:16;;;;;;;27.52;18.27;;;9.30;99.90;;;;;;4986229;28;20049;-67
2022/03/17 05:10:43;;;;;;;34.33;20.05;;;9.20;99.90;;;;;;4994285;28;20045;-67
2022/03/17 05:13:10;;;;;;;24.70;17.23;;;9.20;99.90;;;;;;5007702;28;20046;-67
2022/03/17 05:15:36;;;;;;;34.90;21.13;;;9.20;99.90;;;;;;4986124;28;20046;-68
2022/03/17 05:18:04;;;;;;;30.55;20.92;;;9.20;99.90;;;;;;4989601;28;20101;-67
2022/03/17 05:20:31;;;;;;;29.73;20.45;;;9.20;99.90;;;;;;4973263;28;20053;-68
2022/03/17 05:22:57;;;;;;;33.60;22.40;;;9.20;99.90;;;;;;4987318;28;20034;-68
2022/03/17 05:25:23;;;;;;;29.73;19.83;;;9.20;99.90;;;;;;4997678;28;20054;-69
2022/03/17 05:27:52;;;;;;;32.03;22.83;;;9.10;99.90;;;;;;4988587;28;20050;-68
2022/03/17 05:30:19;;;;;;;37.63;23.43;;;9.10;99.90;;;;;;4972842;28;20117;-68
2022/03/17 05:32:47;;;;;;;39.95;23.70;;;9.10;99.90;;;;;;4987895;28;20100;-69
2022/03/17 05:35:15;;;;;;;36.60;22.77;;;9.00;99.90;;;;;;4986016;28;20370;-69
2022/03/17 05:37:42;;;;;;;37.50;24.05;;;9.00;99.90;;;;;;4980350;28;20096;-68
2022/03/17 05:40:17;;;;;;;38.92;23.95;;;8.90;99.90;;;;;;5007224;28;20033;-68
2022/03/17 05:42:48;;;;;;;40.90;26.38;;;8.90;99.90;;;;;;4986932;28;20125;-68
2022/03/17 05:45:15;;;;;;;35.53;23.58;;;8.90;99.90;;;;;;4993221;28;20029;-67
2022/03/17 05:47:44;;;;;;;49.60;26.45;;;8.80;99.90;;;;;;5007082;28;20038;-67
2022/03/17 05:50:12;;;;;;;32.47;23.02;;;8.80;99.90;;;;;;5022005;28;20618;-68
2022/03/17 05:52:39;;;;;;;33.70;23.55;;;8.80;99.90;;;;;;5016300;28;20056;-68
2022/03/17 05:55:12;;;;;;;37.33;24.98;;;8.80;99.90;;;;;;4988236;28;20132;-68
2022/03/17 05:57:39;;;;;;;42.03;25.98;;;8.80;99.90;;;;;;4975806;28;20383;-69
2022/03/17 06:00:07;;;;;;;48.35;28.95;;;8.90;99.90;;;;;;4987969;28;20043;-68
2022/03/17 06:02:34;;;;;;;36.42;26.33;;;8.90;99.90;;;;;;4994810;28;20056;-68
2022/03/17 06:04:59;;;;;;;37.90;22.90;;;8.90;99.90;;;;;;4991128;28;20046;-68
2022/03/17 06:07:25;;;;;;;32.17;21.58;;;8.90;99.90;;;;;;4984903;28;20042;-67
2022/03/17 06:09:55;;;;;;;16.50;11.15;;;9.00;99.90;;;;;;4978683;28;20038;-68
2022/03/17 06:12:20;;;;;;;12.63;7.20;;;8.90;99.90;;;;;;4982351;28;20076;-67
2022/03/17 06:14:46;;;;;;;13.70;10.38;;;8.80;99.90;;;;;;5018642;28;20814;-67
2022/03/17 06:17:12;;;;;;;8.23;6.90;;;8.70;99.90;;;;;;4985496;28;20137;-67
2022/03/17 06:19:40;;;;;;;5.30;4.50;;;8.50;99.90;;;;;;5005325;28;20366;-67
2022/03/17 06:22:06;;;;;;;8.60;6.93;;;8.50;99.90;;;;;;4985722;28;20574;-68
2022/03/17 06:24:31;;;;;;;6.20;4.63;;;8.30;99.90;;;;;;4980600;28;20387;-68
2022/03/17 06:26:57;;;;;;;3.65;3.25;;;8.20;99.90;;;;;;5006592;28;20042;-68
2022/03/17 06:29:23;;;;;;;7.10;3.83;;;8.10;99.90;;;;;;4985053;28;20038;-68
2022/03/17 06:31:48;;;;;;;12.48;7.97;;;8.10;99.90;;;;;;4984387;28;20045;-68
2022/03/17 06:34:14;;;;;;;6.57;5.03;;;8.10;99.90;;;;;;4990953;28;20053;-68
2022/03/17 06:36:40;;;;;;;19.25;10.85;;;8.10;99.90;;;;;;4986422;28;20086;-68
2022/03/17 06:39:05;;;;;;;19.73;10.13;;;8.00;99.90;;;;;;5006064;28;20488;-68
2022/03/17 06:41:31;;;;;;;15.88;7.90;;;8.00;99.90;;;;;;4983942;28;20038;-68
2022/03/17 06:43:57;;;;;;;23.67;11.48;;;8.00;99.90;;;;;;4971947;28;20049;-69
2022/03/17 06:46:22;;;;;;;21.95;11.15;;;8.00;99.90;;;;;;5004376;28;20121;-68
2022/03/17 06:48:48;;;;;;;16.02;6.78;;;8.00;99.90;;;;;;4988024;28;20046;-69
2022/03/17 06:51:14;;;;;;;9.00;4.97;;;8.00;99.90;;;;;;4994797;28;20045;-69
2022/03/17 06:53:39;;;;;;;8.05;3.42;;;7.90;99.90;;;;;;4971850;28;20050;-68
2022/03/17 06:56:05;;;;;;;13.80;4.78;;;7.90;99.90;;;;;;4988446;28;20470;-69
2022/03/17 06:58:32;;;;;;;11.93;5.38;;;7.90;99.90;;;;;;4970953;28;20519;-69
2022/03/17 07:00:58;;;;;;;9.60;3.20;;;7.90;99.90;;;;;;4980616;28;20064;-69
2022/03/17 07:03:23;;;;;;;9.45;2.47;;;7.90;99.90;;;;;;4987726;28;20407;-69
2022/03/17 07:05:49;;;;;;;14.40;4.38;;;7.90;99.90;;;;;;4976738;28;20473;-69
2022/03/17 07:08:15;;;;;;;16.73;5.07;;;7.90;99.90;;;;;;4974986;28;20318;-68
2022/03/17 07:10:40;;;;;;;15.15;2.90;;;7.90;99.90;;;;;;4968430;28;20042;-69
2022/03/17 07:13:06;;;;;;;6.85;2.35;;;7.90;99.90;;;;;;4970867;28;20066;-68
2022/03/17 07:15:32;;;;;;;17.25;3.95;;;7.80;99.90;;;;;;4971455;28;20057;-69
2022/03/17 07:17:58;;;;;;;17.85;3.33;;;7.90;99.90;;;;;;5004887;28;20037;-69
2022/03/17 07:20:23;;;;;;;10.48;2.40;;;7.90;99.90;;;;;;4991143;28;20127;-69
2022/03/17 07:22:50;;;;;;;13.40;3.42;;;7.90;99.90;;;;;;4991419;28;20444;-69
2022/03/17 07:25:17;;;;;;;6.43;1.95;;;7.80;99.90;;;;;;4997378;28;20403;-69
2022/03/17 07:27:45;;;;;;;11.48;2.88;;;7.80;99.90;;;;;;4990606;28;20045;-69
2022/03/17 07:30:20;;;;;;;11.65;3.53;;;7.80;99.90;;;;;;4991552;28;20061;-69
2022/03/17 07:32:55;;;;;;;9.05;2.42;;;7.80;99.90;;;;;;4991157;28;20446;-69
2022/03/17 07:35:28;;;;;;;11.63;3.25;;;7.80;99.90;;;;;;4994064;28;20054;-69
2022/03/17 07:37:58;;;;;;;9.65;2.85;;;7.80;99.90;;;;;;4983944;28;20399;-69
2022/03/17 07:40:25;;;;;;;15.02;2.15;;;7.80;99.90;;;;;;4999132;28;20042;-69
2022/03/17 07:42:50;;;;;;;4.10;1.15;;;7.80;99.90;;;;;;4995273;28;20107;-69
2022/03/17 07:45:16;;;;;;;12.25;2.33;;;7.80;99.90;;;;;;4991447;28;20042;-69
2022/03/17 07:47:47;;;;;;;14.43;2.78;;;7.80;99.90;;;;;;4976738;28;20045;-69
2022/03/17 07:50:13;;;;;;;12.80;2.65;;;7.80;99.90;;;;;;4978933;28;20408;-68
2022/03/17 07:52:39;;;;;;;11.13;2.78;;;7.80;99.90;;;;;;4996872;28;20447;-69
2022/03/17 07:55:05;;;;;;;16.83;3.00;;;7.80;99.90;;;;;;4990836;28;20129;-69
2022/03/17 07:57:32;;;;;;;8.25;2.17;;;7.90;99.90;;;;;;4978748;28;20042;-69
2022/03/17 07:59:58;;;;;;;11.25;2.40;;;7.90;99.90;;;;;;4998462;28;20042;-68
2022/03/17 08:02:24;;;;;;;5.53;1.35;;;7.90;99.90;;;;;;4959791;28;20046;-68
2022/03/17 08:04:52;;;;;;;15.07;2.88;;;7.90;99.90;;;;;;4990341;28;20061;-68
2022/03/17 08:07:18;;;;;;;15.70;2.92;;;7.90;99.90;;;;;;4974056;28;20045;-69
2022/03/17 08:09:43;;;;;;;14.55;2.80;;;7.90;99.90;;;;;;4990113;28;20068;-69
2022/03/17 08:12:09;;;;;;;13.35;2.95;;;7.80;99.90;;;;;;4993172;28;20117;-69
2022/03/17 08:14:35;;;;;;;10.73;1.98;;;7.80;99.90;;;;;;4967291;28;20100;-69
2022/03/17 08:17:01;;;;;;;10.32;2.17;;;7.70;99.90;;;;;;4988537;28;20046;-69
2022/03/17 08:19:26;;;;;;;15.90;2.25;;;7.70;99.90;;;;;;4968350;28;20037;-69
2022/03/17 08:21:54;;;;;;;17.38;2.72;;;7.60;99.90;;;;;;4987976;28;20122;-69
2022/03/17 08:24:19;;;;;;;17.38;3.10;;;7.60;99.90;;;;;;4991146;28;20046;-69
2022/03/17 08:26:45;;;;;;;19.08;3.72;;;7.60;99.90;;;;;;4986142;28;20061;-69
2022/03/17 08:29:11;;;;;;;17.73;2.65;;;7.60;99.90;;;;;;4971184;28;20048;-68
2022/03/17 08:31:36;;;;;;;18.65;3.28;;;7.70;99.90;;;;;;4986173;28;20034;-69
2022/03/17 08:34:02;;;;;;;5.95;1.58;;;7.60;99.90;;;;;;4987682;28;20140;-69
2022/03/17 08:36:28;;;;;;;13.55;2.90;;;7.70;99.90;;;;;;4988771;28;20416;-68
2022/03/17 08:38:55;;;;;;;18.67;3.22;;;7.80;99.90;;;;;;4988086;28;20141;-69
2022/03/17 08:41:21;;;;;;;20.15;4.30;;;7.80;99.90;;;;;;4987778;28;20050;-69
2022/03/17 08:43:48;;;;;;;23.50;3.17;;;7.80;99.90;;;;;;4989273;28;20058;-69
2022/03/17 08:51:41;;;;;;;25.52;4.28;;;7.70;99.90;;;;;;5005555;28;20082;-68
2022/03/17 08:54:07;;;;;;;16.80;3.10;;;7.80;99.90;;;;;;4992027;28;20076;-68
2022/03/17 08:56:34;;;;;;;26.63;4.70;;;7.80;99.90;;;;;;4988849;28;20081;-68
2022/03/17 08:59:00;;;;;;;30.45;5.43;;;7.80;99.90;;;;;;4988087;28;20081;-68
2022/03/17 09:01:26;;;;;;;32.55;5.82;;;7.80;99.90;;;;;;4987638;28;20050;-68
2022/03/17 09:03:53;;;;;;;27.90;4.22;;;7.80;99.90;;;;;;4984964;28;20053;-69
2022/03/17 09:06:18;;;;;;;24.38;5.75;;;7.90;99.90;;;;;;4986619;28;20520;-69
2022/03/17 09:08:44;;;;;;;30.83;5.78;;;7.80;99.90;;;;;;5008590;28;20040;-68
2022/03/17 09:11:13;;;;;;;24.45;4.53;;;7.90;99.90;;;;;;4997929;28;20081;-68
2022/03/17 09:13:40;;;;;;;36.53;5.88;;;7.90;99.90;;;;;;4991079;28;20050;-69
2022/03/17 09:16:07;;;;;;;22.73;4.55;;;7.90;99.90;;;;;;4974658;28;20045;-68
2022/03/17 09:18:33;;;;;;;25.08;4.53;;;7.90;99.90;;;;;;4990044;28;20038;-68
2022/03/17 09:21:00;;;;;;;18.77;3.90;;;7.90;99.90;;;;;;4987394;28;20120;-68
2022/03/17 09:23:26;;;;;;;10.55;2.78;;;7.90;99.90;;;;;;4988900;28;20053;-68
2022/03/17 09:25:53;;;;;;;17.48;3.40;;;7.80;99.90;;;;;;5003582;28;20054;-68
2022/03/17 09:28:19;;;;;;;24.83;3.92;;;7.80;99.90;;;;;;4972985;28;20044;-68
2022/03/17 09:30:44;;;;;;;19.83;3.85;;;7.80;99.90;;;;;;4995586;28;20042;-68
2022/03/17 09:33:10;;;;;;;18.70;3.88;;;7.80;99.90;;;;;;4997188;28;20045;-68
2022/03/17 09:35:37;;;;;;;20.77;3.75;;;7.70;99.90;;;;;;4991762;28;20133;-68
2022/03/17 09:38:06;;;;;;;22.08;4.53;;;7.70;99.90;;;;;;5008293;28;20056;-68
2022/03/17 09:40:33;;;;;;;20.77;3.47;;;7.80;99.90;;;;;;4985311;28;20401;-68
2022/03/17 09:43:19;;;;;;;21.63;4.28;;;7.80;99.90;;;;;;4986125;28;20088;-68
2022/03/17 09:45:49;;;;;;;21.33;4.45;;;7.90;99.90;;;;;;4983544;28;20393;-68
2022/03/17 09:48:15;;;;;;;20.17;4.28;;;8.00;99.90;;;;;;4984643;28;20078;-68
2022/03/17 09:50:42;;;;;;;17.00;3.75;;;8.00;99.90;;;;;;4991721;28;20060;-68
2022/03/17 09:53:09;;;;;;;18.80;3.97;;;8.00;99.90;;;;;;4971726;28;20077;-69
2022/03/17 09:55:43;;;;;;;20.05;3.70;;;7.90;99.90;;;;;;5015338;28;20550;-68
2022/03/17 09:58:10;;;;;;;23.33;4.63;;;8.00;99.90;;;;;;4988614;28;20084;-68
2022/03/17 10:00:47;;;;;;;20.63;3.90;;;7.90;99.90;;;;;;5001969;28;20042;-68
2022/03/17 10:03:28;;;;;;;18.80;3.45;;;7.90;99.90;;;;;;5007038;28;20542;-68
2022/03/17 10:05:57;;;;;;;21.30;3.97;;;7.90;99.90;;;;;;5008421;28;20042;-68
2022/03/17 10:08:24;;;;;;;18.83;3.92;;;7.90;99.90;;;;;;4990953;28;20034;-68
2022/03/17 10:10:52;;;;;;;19.33;4.82;;;8.00;99.90;;;;;;4972787;28;20057;-68
2022/03/17 10:13:25;;;;;;;23.15;4.85;;;8.10;99.90;;;;;;4990021;28;20379;-68
2022/03/17 10:16:17;;;;;;;20.58;4.05;;;8.20;99.90;;;;;;4987022;28;20065;-68
2022/03/17 10:18:46;;;;;;;23.38;3.50;;;8.30;99.90;;;;;;5003557;28;20053;-68
2022/03/17 10:21:17;;;;;;;17.58;3.78;;;8.40;99.90;;;;;;4989903;28;20076;-68
2022/03/17 10:23:48;;;;;;;21.65;3.78;;;8.60;99.90;;;;;;5006929;28;20066;-68
2022/03/17 10:26:30;;;;;;;15.45;3.72;;;8.70;99.90;;;;;;4992201;28;20049;-67
2022/03/17 10:29:17;;;;;;;18.67;3.92;;;8.80;99.90;;;;;;5005774;28;20041;-68
2022/03/17 10:31:54;;;;;;;17.95;3.33;;;8.90;99.90;;;;;;5005788;28;20088;-68
2022/03/17 10:34:21;;;;;;;18.17;4.65;;;8.90;99.90;;;;;;4989549;28;20496;-68
2022/03/17 10:36:48;;;;;;;25.88;3.97;;;8.90;99.90;;;;;;4988108;28;20081;-68
2022/03/17 10:39:15;;;;;;;18.92;3.72;;;9.00;99.90;;;;;;5007847;28;20042;-68
2022/03/17 10:41:43;;;;;;;22.00;4.20;;;9.10;99.90;;;;;;4986401;28;20042;-68
2022/03/17 10:44:13;;;;;;;22.75;5.28;;;9.10;99.90;;;;;;4987022;28;20046;-68
2022/03/17 10:46:54;;;;;;;18.02;4.18;;;9.00;99.90;;;;;;4989099;28;20447;-67
2022/03/17 10:49:20;;;;;;;22.50;4.53;;;8.80;99.90;;;;;;4991284;28;20359;-67
2022/03/17 10:51:46;;;;;;;21.38;4.80;;;9.10;99.90;;;;;;4977724;28;20112;-67
2022/03/17 10:54:19;;;;;;;19.88;3.63;;;9.40;99.90;;;;;;4992235;28;20049;-68
2022/03/17 10:57:09;;;;;;;33.15;4.43;;;9.40;99.90;;;;;;4978939;28;20038;-68
2022/03/17 10:59:44;;;;;;;18.48;3.88;;;9.40;99.90;;;;;;5014967;28;20045;-68
2022/03/17 11:02:21;;;;;;;17.25;3.63;;;9.40;99.90;;;;;;5027614;28;20059;-68
2022/03/17 11:04:47;;;;;;;20.50;3.92;;;9.20;99.90;;;;;;5013061;28;20046;-68
2022/03/17 11:07:14;;;;;;;16.40;3.35;;;9.30;99.90;;;;;;5009698;28;20050;-68
2022/03/17 11:09:45;;;;;;;20.05;4.45;;;9.60;99.90;;;;;;4993604;28;20049;-68
2022/03/17 11:12:17;;;;;;;21.42;4.93;;;9.70;99.90;;;;;;4996964;28;20451;-67
2022/03/17 11:14:42;;;;;;;8.95;2.63;;;9.60;99.90;;;;;;4989830;28;20411;-68
2022/03/17 11:17:12;;;;;;;20.20;4.75;;;9.50;99.90;;;;;;5010400;28;20034;-67
2022/03/17 11:19:42;;;;;;;17.05;4.30;;;9.30;99.90;;;;;;5008033;28;20042;-67
2022/03/17 11:22:10;;;;;;;25.60;4.28;;;9.20;99.90;;;;;;4989852;28;20042;-67
2022/03/17 11:24:38;;;;;;;19.92;4.72;;;9.40;99.90;;;;;;4992405;28;20073;-68
2022/03/17 11:27:11;;;;;;;22.02;3.85;;;9.70;99.90;;;;;;4990147;28;20435;-67
2022/03/17 11:29:40;;;;;;;21.25;4.55;;;10.10;99.90;;;;;;5009474;28;20054;-67
2022/03/17 11:32:08;;;;;;;27.77;5.28;;;10.30;99.90;;;;;;5011037;28;20311;-67
2022/03/17 11:34:46;;;;;;;20.52;4.25;;;10.40;99.90;;;;;;4988528;28;20057;-67
2022/03/17 11:37:15;;;;;;;23.42;4.50;;;10.50;99.90;;;;;;5008576;28;20049;-67
2022/03/17 11:40:04;;;;;;;19.35;3.70;;;10.80;99.90;;;;;;5024829;28;20127;-67
2022/03/17 11:42:47;;;;;;;18.75;4.85;;;10.50;99.90;;;;;;5008484;28;20053;-67
2022/03/17 11:45:15;;;;;;;17.00;3.58;;;10.10;99.90;;;;;;5005874;28;20058;-67
2022/03/17 11:47:47;;;;;;;18.73;4.55;;;9.90;99.90;;;;;;5006333;28;20111;-67
2022/03/17 11:50:36;;;;;;;16.52;3.80;;;9.90;99.90;;;;;;5009399;28;20046;-66
2022/03/17 11:53:04;;;;;;;19.60;4.15;;;9.70;99.90;;;;;;5012394;28;20055;-67
2022/03/17 11:55:36;;;;;;;12.35;2.50;;;9.80;99.90;;;;;;4995950;28;20064;-67
2022/03/17 11:58:24;;;;;;;22.17;4.45;;;10.10;99.90;;;;;;4995300;28;20633;-67
2022/03/17 12:01:05;;;;;;;19.50;4.13;;;10.20;99.90;;;;;;5017476;28;20522;-67
2022/03/17 12:03:37;;;;;;;13.38;3.03;;;9.90;99.90;;;;;;5008629;28;20411;-67
2022/03/17 12:06:23;;;;;;;20.60;4.05;;;9.80;99.90;;;;;;4991000;28;20140;-67
2022/03/17 12:09:01;;;;;;;19.17;3.33;;;9.90;99.90;;;;;;5023162;28;20061;-68
2022/03/17 12:11:42;;;;;;;22.98;4.40;;;10.20;99.90;;;;;;4996193;28;20125;-67
2022/03/17 12:14:14;;;;;;;17.67;3.97;;;10.30;99.90;;;;;;4993223;28;20045;-67
2022/03/17 12:17:01;;;;;;;12.52;3.55;;;10.10;99.90;;;;;;4987777;28;20042;-67
2022/03/17 12:19:40;;;;;;;17.65;3.70;;;10.10;99.90;;;;;;5025602;28;20038;-67
2022/03/17 12:22:13;;;;;;;22.05;4.85;;;10.30;99.90;;;;;;4986955;28;20407;-67
2022/03/17 12:24:53;;;;;;;14.77;3.20;;;10.40;99.90;;;;;;4998116;28;20049;-67
2022/03/17 12:27:32;;;;;;;16.67;3.10;;;10.50;99.90;;;;;;5015164;28;20056;-66
2022/03/17 12:30:08;;;;;;;19.50;3.90;;;10.50;99.90;;;;;;5008049;28;20042;-67
2022/03/17 12:32:35;;;;;;;16.30;3.83;;;10.60;99.90;;;;;;5007975;28;20112;-66
2022/03/17 12:35:02;;;;;;;19.13;3.60;;;10.40;99.90;;;;;;5005689;28;20507;-67
2022/03/17 12:37:33;;;;;;;20.52;3.53;;;10.30;99.90;;;;;;4988901;28;20046;-66
2022/03/17 12:40:03;;;;;;;16.20;3.58;;;10.40;99.90;;;;;;5008393;28;20357;-66
2022/03/17 12:42:40;;;;;;;16.65;2.92;;;10.50;99.90;;;;;;4989445;28;20042;-67
2022/03/17 12:45:07;;;;;;;20.92;3.90;;;10.70;99.90;;;;;;4989268;28;20200;-67
2022/03/17 12:47:35;;;;;;;22.75;4.70;;;10.80;99.90;;;;;;4996311;28;20042;-67
2022/03/17 12:50:06;;;;;;;14.02;3.10;;;10.90;99.90;;;;;;5022637;28;20168;-66
2022/03/17 12:52:33;;;;;;;16.48;3.47;;;10.90;99.90;;;;;;4995535;28;20511;-66
2022/03/17 12:55:01;;;;;;;16.88;4.03;;;10.90;99.90;;;;;;5010199;28;20439;-66
2022/03/17 12:57:31;;;;;;;18.92;3.17;;;10.80;99.90;;;;;;5013825;28;20100;-67
2022/03/17 12:59:59;;;;;;;17.17;4.25;;;10.80;99.90;;;;;;4987347;28;20053;-66
2022/03/17 13:02:25;;;;;;;17.95;4.00;;;10.90;99.90;;;;;;5008593;28;20058;-67
2022/03/17 13:04:56;;;;;;;15.93;2.67;;;11.00;99.90;;;;;;4992763;28;20057;-67
2022/03/17 13:07:23;;;;;;;23.70;3.72;;;11.00;99.90;;;;;;5013231;28;20049;-67